Time;durP1;ratioP1;P1;durP2;ratioP2;P2;SDS_P1;SDS_P2;PMS_P1;PMS_P2;Temp;Humidity;BMP_temperature;BMP_pressure;BME280_temperature;BME280_humidity;BME280_pressure;Samples;Min_cycle;Max_cycle;Signal;HPM_P1;HPM_P2
2022/10/05 00:02:51;;;;;;;7.88;4.68;;;;;;;;;;5047189;28;20496;-86
2022/10/05 00:05:32;;;;;;;9.45;5.00;;;;;;;;;;5045323;28;20046;-85
2022/10/05 00:08:23;;;;;;;8.60;4.22;;;;;;;;;;5046314;28;20422;-86
2022/10/05 00:11:15;;;;;;;7.65;4.82;;;;;;;;;;5046119;28;20484;-86
2022/10/05 00:13:43;;;;;;;7.80;4.47;;;;;;;;;;5046782;28;20049;-86
2022/10/05 00:16:18;;;;;;;8.60;5.10;;;;;;;;;;5046005;28;20060;-86
2022/10/05 00:18:50;;;;;;;8.70;4.75;;;;;;;;;;5047340;28;20071;-86
2022/10/05 00:21:23;;;;;;;11.32;4.80;;;;;;;;;;5043348;28;20087;-86
2022/10/05 00:23:54;;;;;;;11.48;4.70;;;;;;;;;;5039707;28;20041;-87
2022/10/05 00:26:32;;;;;;;9.77;4.80;;;;;;;;;;5041733;28;20032;-87
2022/10/05 00:29:01;;;;;;;12.27;4.45;;;;;;;;;;5045754;28;20043;-86
2022/10/05 00:31:32;;;;;;;12.77;5.07;;;;;;;;;;5028373;28;20668;-85
2022/10/05 00:33:59;;;;;;;8.15;4.82;;;;;;;;;;5044152;28;20037;-85
2022/10/05 00:36:31;;;;;;;8.00;4.85;;;;;;;;;;5045939;28;20037;-85
2022/10/05 00:39:02;;;;;;;10.20;5.03;;;;;;;;;;5028654;28;20411;-86
2022/10/05 00:41:42;;;;;;;7.05;4.70;;;;;;;;;;5043578;28;20057;-85
2022/10/05 00:44:45;;;;;;;7.68;4.55;;;;;;;;;;5050167;28;20041;-86
2022/10/05 00:47:21;;;;;;;10.60;5.20;;;;;;;;;;5044235;28;20125;-86
2022/10/05 00:50:24;;;;;;;8.20;4.30;;;;;;;;;;5045591;28;20049;-86
2022/10/05 00:53:23;;;;;;;12.95;4.28;;;;;;;;;;5046570;28;20045;-86
2022/10/05 00:55:58;;;;;;;10.68;4.45;;;;;;;;;;5042261;28;20051;-86
2022/10/05 00:58:46;;;;;;;9.75;4.68;;;;;;;;;;5042894;28;20161;-86
2022/10/05 01:01:32;;;;;;;10.10;4.82;;;;;;;;;;5044550;28;20041;-85
2022/10/05 01:04:11;;;;;;;8.48;4.20;;;;;;;;;;5048058;28;20037;-86
2022/10/05 01:07:03;;;;;;;12.93;4.78;;;;;;;;;;5047835;28;20048;-86
2022/10/05 01:10:04;;;;;;;8.05;4.43;;;;;;;;;;5027288;28;20915;-85
2022/10/05 01:12:56;;;;;;;10.63;5.15;;;;;;;;;;4931703;29;20090;-86
2022/10/05 01:15:50;;;;;;;12.50;4.57;;;;;;;;;;4931242;28;20050;-86
2022/10/05 01:18:25;;;;;;;8.73;4.40;;;;;;;;;;4946695;28;20048;-85
2022/10/05 01:21:19;;;;;;;11.32;4.55;;;;;;;;;;4944179;28;20050;-85
2022/10/05 01:23:58;;;;;;;12.05;4.90;;;;;;;;;;4943395;28;20085;-85
2022/10/05 01:26:41;;;;;;;7.72;4.75;;;;;;;;;;4944933;28;20067;-86
2022/10/05 01:29:35;;;;;;;9.80;4.88;;;;;;;;;;4943214;28;20055;-86
2022/10/05 01:32:37;;;;;;;12.20;4.50;;;;;;;;;;4886967;29;20104;-86
2022/10/05 01:35:20;;;;;;;8.88;4.50;;;;;;;;;;4891284;29;20127;-85
2022/10/05 01:38:18;;;;;;;14.23;5.00;;;;;;;;;;4890293;29;20083;-86
2022/10/05 01:41:10;;;;;;;12.73;5.95;;;;;;;;;;4891210;29;20047;-86
2022/10/05 01:44:18;;;;;;;11.45;4.68;;;;;;;;;;4888027;29;20052;-86
2022/10/05 01:46:48;;;;;;;12.88;4.53;;;;;;;;;;4889529;29;20049;-86
2022/10/05 01:49:44;;;;;;;11.93;5.20;;;;;;;;;;4922458;28;21626;-86
2022/10/05 01:52:20;;;;;;;10.65;4.82;;;;;;;;;;4979011;28;20037;-86
2022/10/05 01:54:59;;;;;;;9.30;4.20;;;;;;;;;;4976848;28;20039;-86
2022/10/05 01:57:44;;;;;;;13.57;4.70;;;;;;;;;;4950879;28;20053;-86
2022/10/05 02:00:15;;;;;;;10.07;4.75;;;;;;;;;;4959824;28;20085;-86
2022/10/05 02:02:55;;;;;;;7.35;4.15;;;;;;;;;;4974879;28;20051;-85
2022/10/05 02:05:31;;;;;;;8.02;4.60;;;;;;;;;;4965750;28;20136;-86
2022/10/05 02:08:07;;;;;;;8.10;4.50;;;;;;;;;;4963637;28;20089;-86
2022/10/05 02:11:10;;;;;;;10.48;4.85;;;;;;;;;;5024665;28;20037;-86
2022/10/05 02:14:40;;;;;;;10.75;4.95;;;;;;;;;;5043695;28;20391;-86
2022/10/05 02:17:16;;;;;;;8.35;5.03;;;;;;;;;;5044125;28;20040;-86
2022/10/05 02:19:47;;;;;;;10.65;4.43;;;;;;;;;;5042667;28;20044;-86
2022/10/05 02:22:31;;;;;;;12.13;4.82;;;;;;;;;;5043553;28;20493;-86
2022/10/05 02:25:11;;;;;;;8.43;4.50;;;;;;;;;;5024809;28;20047;-85
2022/10/05 02:27:52;;;;;;;15.35;4.53;;;;;;;;;;5044838;28;20497;-86
2022/10/05 02:30:27;;;;;;;11.25;4.72;;;;;;;;;;5010071;28;20459;-85
2022/10/05 02:33:08;;;;;;;9.43;4.60;;;;;;;;;;5027684;28;20044;-86
2022/10/05 02:35:35;;;;;;;14.48;5.63;;;;;;;;;;5011784;28;20053;-86
2022/10/05 02:38:36;;;;;;;12.25;4.72;;;;;;;;;;5026102;28;20390;-86
2022/10/05 02:41:20;;;;;;;8.57;4.32;;;;;;;;;;5028156;28;20746;-86
2022/10/05 02:43:59;;;;;;;12.88;4.85;;;;;;;;;;5048405;28;20037;-85
2022/10/05 02:46:54;;;;;;;7.85;4.25;;;;;;;;;;5029791;28;20119;-86
2022/10/05 02:50:13;;;;;;;11.60;4.80;;;;;;;;;;4955525;28;20066;-86
2022/10/05 02:53:00;;;;;;;10.25;4.65;;;;;;;;;;4949770;28;20047;-86
2022/10/05 02:56:03;;;;;;;11.52;4.90;;;;;;;;;;4963873;28;20039;-85
2022/10/05 02:58:59;;;;;;;8.65;4.18;;;;;;;;;;4952811;28;20062;-85
2022/10/05 03:01:34;;;;;;;9.60;4.53;;;;;;;;;;4956248;28;20043;-85
2022/10/05 03:04:25;;;;;;;9.65;4.60;;;;;;;;;;4964354;28;20616;-86
2022/10/05 03:07:13;;;;;;;10.63;4.72;;;;;;;;;;4964495;28;20129;-86
2022/10/05 03:10:00;;;;;;;13.48;4.97;;;;;;;;;;4959390;28;20039;-86
2022/10/05 03:12:46;;;;;;;11.60;4.55;;;;;;;;;;4952477;28;20058;-86
2022/10/05 03:15:22;;;;;;;11.05;4.93;;;;;;;;;;4965405;28;20574;-86
2022/10/05 03:18:16;;;;;;;12.07;4.25;;;;;;;;;;4947132;28;20051;-86
2022/10/05 03:20:52;;;;;;;15.45;5.18;;;;;;;;;;4964561;28;20059;-86
2022/10/05 03:23:59;;;;;;;9.30;4.65;;;;;;;;;;4952658;28;20566;-85
2022/10/05 03:26:45;;;;;;;6.07;3.90;;;;;;;;;;5013059;28;20055;-86
2022/10/05 03:29:28;;;;;;;8.93;4.45;;;;;;;;;;5044591;28;20489;-85
2022/10/05 03:32:37;;;;;;;13.18;4.38;;;;;;;;;;5029285;28;20068;-85
2022/10/05 03:35:21;;;;;;;11.70;5.35;;;;;;;;;;4969698;28;20054;-86
2022/10/05 03:38:03;;;;;;;10.38;4.40;;;;;;;;;;4971737;28;20445;-86
2022/10/05 03:40:31;;;;;;;8.45;4.45;;;;;;;;;;4984877;28;20454;-86
2022/10/05 03:43:25;;;;;;;10.38;4.50;;;;;;;;;;4969553;28;20069;-86
2022/10/05 03:46:10;;;;;;;9.50;4.43;;;;;;;;;;4981020;28;20085;-86
2022/10/05 03:48:54;;;;;;;12.10;4.47;;;;;;;;;;4984266;28;20050;-85
2022/10/05 03:51:31;;;;;;;9.27;4.57;;;;;;;;;;4982607;28;20046;-86
2022/10/05 03:54:27;;;;;;;10.93;4.20;;;;;;;;;;4956571;28;20058;-86
2022/10/05 03:57:12;;;;;;;12.60;4.88;;;;;;;;;;4972807;28;20054;-86
2022/10/05 04:00:11;;;;;;;10.50;4.55;;;;;;;;;;4968047;28;20534;-86
2022/10/05 04:03:11;;;;;;;9.68;4.65;;;;;;;;;;4966149;28;20050;-86
2022/10/05 04:05:54;;;;;;;13.20;4.25;;;;;;;;;;4984609;28;20042;-86
2022/10/05 04:08:46;;;;;;;8.60;4.90;;;;;;;;;;4979957;28;20110;-86
2022/10/05 04:11:51;;;;;;;10.00;4.25;;;;;;;;;;5045047;28;20037;-85
2022/10/05 04:14:54;;;;;;;11.15;4.57;;;;;;;;;;5030266;28;20041;-86
2022/10/05 04:17:38;;;;;;;9.55;5.03;;;;;;;;;;5028509;28;20422;-86
2022/10/05 04:20:23;;;;;;;9.70;4.30;;;;;;;;;;5030282;28;20041;-85
2022/10/05 04:23:11;;;;;;;7.90;4.35;;;;;;;;;;5025282;28;20033;-86
2022/10/05 04:25:47;;;;;;;10.63;4.68;;;;;;;;;;5027332;28;20052;-86
2022/10/05 04:28:54;;;;;;;9.27;4.43;;;;;;;;;;5044180;28;20041;-86
2022/10/05 04:31:51;;;;;;;9.48;5.80;;;;;;;;;;5045345;28;20029;-86
2022/10/05 04:34:29;;;;;;;8.23;5.05;;;;;;;;;;5047379;28;20071;-86
2022/10/05 04:37:03;;;;;;;11.57;4.70;;;;;;;;;;5048506;28;20095;-86
2022/10/05 04:39:44;;;;;;;9.23;4.40;;;;;;;;;;5044725;28;20049;-85
2022/10/05 04:42:31;;;;;;;9.07;4.40;;;;;;;;;;5046108;28;20045;-86
2022/10/05 04:45:18;;;;;;;8.93;4.63;;;;;;;;;;5044447;28;20080;-86
2022/10/05 04:48:14;;;;;;;12.70;4.70;;;;;;;;;;5013602;28;20517;-85
2022/10/05 04:50:58;;;;;;;12.80;4.80;;;;;;;;;;4983950;28;20062;-86
2022/10/05 04:53:42;;;;;;;10.77;5.22;;;;;;;;;;4968676;28;20060;-85
2022/10/05 04:56:29;;;;;;;9.80;4.78;;;;;;;;;;4981423;28;20750;-85
2022/10/05 04:59:23;;;;;;;10.68;4.95;;;;;;;;;;4985280;28;20062;-86
2022/10/05 05:01:58;;;;;;;11.50;4.97;;;;;;;;;;4984467;28;20268;-86
2022/10/05 05:04:51;;;;;;;9.18;5.00;;;;;;;;;;4964512;28;20739;-86
2022/10/05 05:07:49;;;;;;;12.48;5.57;;;;;;;;;;4986267;28;20042;-85
2022/10/05 05:10:56;;;;;;;14.07;5.10;;;;;;;;;;4982385;28;20057;-86
2022/10/05 05:16:44;;;;;;;12.95;5.13;;;;;;;;;;4969429;28;20038;-86
2022/10/05 05:19:27;;;;;;;11.77;5.18;;;;;;;;;;4965421;28;20093;-86
2022/10/05 05:22:46;;;;;;;13.52;4.72;;;;;;;;;;4977014;28;20826;-86
2022/10/05 05:25:37;;;;;;;;;;;;;;;;;;4955609;28;20557;-86
2022/10/05 05:28:08;;;;;;;15.45;5.00;;;;;;;;;;5018013;28;20062;-85
2022/10/05 05:30:57;;;;;;;11.10;5.20;;;;;;;;;;5024967;28;20162;-86
2022/10/05 05:34:01;;;;;;;7.72;4.78;;;;;;;;;;5044331;28;20124;-85
2022/10/05 05:36:45;;;;;;;12.52;5.50;;;;;;;;;;5027386;28;20544;-86
2022/10/05 05:39:30;;;;;;;12.55;5.60;;;;;;;;;;5047537;28;20049;-86
2022/10/05 05:42:09;;;;;;;19.17;5.55;;;;;;;;;;5024831;28;20115;-86
2022/10/05 05:44:44;;;;;;;12.50;5.50;;;;;;;;;;5045419;28;20244;-86
2022/10/05 05:47:36;;;;;;;11.52;5.57;;;;;;;;;;5012069;28;20198;-85
2022/10/05 05:50:26;;;;;;;13.02;5.10;;;;;;;;;;5029648;28;20037;-86
2022/10/05 05:53:26;;;;;;;12.02;5.35;;;;;;;;;;5043875;28;20032;-86
2022/10/05 05:56:22;;;;;;;11.57;6.13;;;;;;;;;;5023274;28;20316;-85
2022/10/05 05:59:18;;;;;;;12.68;6.05;;;;;;;;;;5042470;28;20037;-86
2022/10/05 06:01:51;;;;;;;9.23;5.38;;;;;;;;;;5040835;28;20031;-86
2022/10/05 06:04:40;;;;;;;10.55;5.88;;;;;;;;;;5046266;28;20037;-85
2022/10/05 06:07:15;;;;;;;15.32;5.55;;;;;;;;;;5042369;28;20045;-86
2022/10/05 06:09:48;;;;;;;11.25;5.97;;;;;;;;;;5023284;28;20047;-86
2022/10/05 06:12:30;;;;;;;9.60;5.22;;;;;;;;;;5043668;28;20056;-86
2022/10/05 06:15:12;;;;;;;15.70;5.60;;;;;;;;;;5023486;28;20452;-86
2022/10/05 06:17:54;;;;;;;12.70;5.40;;;;;;;;;;5037588;28;20044;-86
2022/10/05 06:20:47;;;;;;;15.10;5.80;;;;;;;;;;5044643;28;20100;-86
2022/10/05 06:23:45;;;;;;;15.85;5.72;;;;;;;;;;5028399;28;20033;-86
2022/10/05 06:26:27;;;;;;;12.95;5.90;;;;;;;;;;5027367;28;20044;-86
2022/10/05 06:29:23;;;;;;;14.18;5.53;;;;;;;;;;5042788;28;20879;-86
2022/10/05 06:32:04;;;;;;;11.68;5.95;;;;;;;;;;5021963;28;20120;-86
2022/10/05 06:34:56;;;;;;;11.85;5.55;;;;;;;;;;5029508;28;20045;-85
2022/10/05 06:37:48;;;;;;;12.73;6.25;;;;;;;;;;5022584;28;20091;-85
2022/10/05 06:40:31;;;;;;;14.88;6.00;;;;;;;;;;5028229;28;20045;-86
2022/10/05 06:43:15;;;;;;;12.32;5.93;;;;;;;;;;5044050;28;20116;-85
2022/10/05 06:46:08;;;;;;;10.63;5.72;;;;;;;;;;5030872;28;20064;-85
2022/10/05 06:49:02;;;;;;;10.45;5.93;;;;;;;;;;5026698;28;20132;-85
2022/10/05 06:52:27;;;;;;;10.43;5.50;;;;;;;;;;5046784;28;20045;-85
2022/10/05 06:55:18;;;;;;;16.58;5.97;;;;;;;;;;5026287;28;20048;-84
2022/10/05 06:58:13;;;;;;;9.38;5.35;;;;;;;;;;5051208;28;20029;-85
2022/10/05 07:00:57;;;;;;;12.77;6.43;;;;;;;;;;5031610;28;20037;-85
2022/10/05 07:03:45;;;;;;;12.65;6.50;;;;;;;;;;5047199;28;20037;-85
2022/10/05 07:06:22;;;;;;;15.65;6.20;;;;;;;;;;5045817;28;20409;-85
2022/10/05 07:09:05;;;;;;;12.63;6.40;;;;;;;;;;5027455;28;20037;-85
2022/10/05 07:11:45;;;;;;;14.82;6.22;;;;;;;;;;5046931;28;20591;-85
2022/10/05 07:14:46;;;;;;;14.27;5.90;;;;;;;;;;5027034;28;20041;-85
2022/10/05 07:17:33;;;;;;;11.23;6.45;;;;;;;;;;5045790;28;20033;-85
2022/10/05 07:20:27;;;;;;;13.68;6.20;;;;;;;;;;5029834;28;20047;-85
2022/10/05 07:23:03;;;;;;;14.85;7.18;;;;;;;;;;5009043;28;20045;-85
2022/10/05 07:25:58;;;;;;;11.60;6.45;;;;;;;;;;5045193;28;20040;-85
2022/10/05 07:28:45;;;;;;;11.95;6.40;;;;;;;;;;5030258;28;20095;-85
2022/10/05 07:31:33;;;;;;;11.75;5.63;;;;;;;;;;5012289;28;20051;-85
2022/10/05 07:34:08;;;;;;;13.65;6.30;;;;;;;;;;5030721;28;20493;-86
2022/10/05 07:40:16;;;;;;;12.13;5.95;;;;;;;;;;5026387;28;20051;-85
2022/10/05 07:43:02;;;;;;;13.15;6.28;;;;;;;;;;5031675;28;20077;-86
2022/10/05 07:45:59;;;;;;;13.75;6.05;;;;;;;;;;5027207;28;20037;-86
2022/10/05 07:48:54;;;;;;;17.65;5.45;;;;;;;;;;5046027;28;20052;-86
2022/10/05 07:51:33;;;;;;;11.95;6.78;;;;;;;;;;4951916;28;20055;-85
2022/10/05 07:54:32;;;;;;;14.68;6.65;;;;;;;;;;4968748;28;20070;-86
2022/10/05 07:57:13;;;;;;;13.45;5.80;;;;;;;;;;4967304;28;20086;-85
2022/10/05 07:59:50;;;;;;;16.73;6.28;;;;;;;;;;4951561;28;20050;-86
2022/10/05 08:08:38;;;;;;;11.13;5.35;;;;;;;;;;4968677;28;20446;-86
2022/10/05 08:11:11;;;;;;;13.43;5.13;;;;;;;;;;4963939;28;20051;-86
2022/10/05 08:13:48;;;;;;;9.80;5.68;;;;;;;;;;4932528;28;20136;-85
2022/10/05 08:16:16;;;;;;;11.10;5.55;;;;;;;;;;4967075;28;20070;-85
2022/10/05 08:19:07;;;;;;;16.95;5.85;;;;;;;;;;4949793;28;20482;-85
2022/10/05 08:21:53;;;;;;;13.90;5.65;;;;;;;;;;4964531;28;20153;-86
2022/10/05 08:24:59;;;;;;;11.60;5.45;;;;;;;;;;4945676;28;20057;-86
2022/10/05 08:27:37;;;;;;;10.45;5.20;;;;;;;;;;4971738;28;20137;-86
2022/10/05 08:30:11;;;;;;;9.32;4.88;;;;;;;;;;5040567;28;20049;-85
2022/10/05 08:33:01;;;;;;;11.50;5.13;;;;;;;;;;5042841;28;20048;-86
2022/10/05 08:35:45;;;;;;;9.45;5.40;;;;;;;;;;5045131;28;20045;-85
2022/10/05 08:38:17;;;;;;;14.43;5.72;;;;;;;;;;5003305;28;20045;-85
2022/10/05 08:41:25;;;;;;;11.20;5.40;;;;;;;;;;5041648;28;20091;-86
2022/10/05 08:44:38;;;;;;;10.85;4.95;;;;;;;;;;5045724;28;20477;-86
2022/10/05 08:48:07;;;;;;;10.48;5.30;;;;;;;;;;4967772;28;20047;-86
2022/10/05 08:50:55;;;;;;;8.70;5.10;;;;;;;;;;4982775;28;20145;-86
2022/10/05 08:53:26;;;;;;;8.57;5.20;;;;;;;;;;4967118;28;20038;-85
2022/10/05 08:56:29;;;;;;;9.43;5.85;;;;;;;;;;4983645;28;20047;-86
2022/10/05 08:59:09;;;;;;;13.93;5.82;;;;;;;;;;4983343;28;20438;-86
2022/10/05 09:02:17;;;;;;;10.35;5.97;;;;;;;;;;4983837;28;20046;-86
2022/10/05 09:04:57;;;;;;;8.75;5.53;;;;;;;;;;4983392;28;20050;-85
2022/10/05 09:07:40;;;;;;;14.02;6.05;;;;;;;;;;4981970;28;20062;-86
2022/10/05 09:18:52;;;;;;;12.18;5.18;;;;;;;;;;4982769;28;20038;-86
2022/10/05 09:21:55;;;;;;;9.25;5.20;;;;;;;;;;5000497;28;20045;-86
2022/10/05 09:24:42;;;;;;;11.57;5.15;;;;;;;;;;5029374;28;20506;-86
2022/10/05 09:27:17;;;;;;;8.73;5.10;;;;;;;;;;5045313;28;20504;-87
2022/10/05 09:30:12;;;;;;;12.02;4.82;;;;;;;;;;5044334;28;20037;-86
2022/10/05 09:33:06;;;;;;;9.80;5.50;;;;;;;;;;5045575;28;20531;-86
2022/10/05 09:35:57;;;;;;;7.68;4.78;;;;;;;;;;5043906;28;20074;-86
2022/10/05 09:38:54;;;;;;;10.02;5.53;;;;;;;;;;5044550;28;20042;-87
2022/10/05 09:41:35;;;;;;;9.77;5.43;;;;;;;;;;5044196;28;20059;-86
2022/10/05 09:45:10;;;;;;;10.13;5.47;;;;;;;;;;5045171;28;20516;-86
2022/10/05 09:48:02;;;;;;;10.60;5.97;;;;;;;;;;5047628;28;20396;-86
2022/10/05 09:51:00;;;;;;;10.65;5.93;;;;;;;;;;5043818;28;20456;-87
2022/10/05 09:53:40;;;;;;;8.77;5.10;;;;;;;;;;5047379;28;20052;-86
2022/10/05 09:56:19;;;;;;;9.77;6.05;;;;;;;;;;5043805;28;20044;-86
2022/10/05 09:59:06;;;;;;;8.98;5.53;;;;;;;;;;5044659;28;20043;-86
2022/10/05 10:02:19;;;;;;;9.95;5.95;;;;;;;;;;5045281;28;20091;-86
2022/10/05 10:05:25;;;;;;;14.23;6.35;;;;;;;;;;5044611;28;20674;-86
2022/10/05 10:08:49;;;;;;;9.10;5.72;;;;;;;;;;5025524;28;20079;-86
2022/10/05 10:12:01;;;;;;;12.48;6.30;;;;;;;;;;4936124;28;20047;-86
2022/10/05 10:14:44;;;;;;;9.50;5.97;;;;;;;;;;4946554;28;20043;-86
2022/10/05 10:17:30;;;;;;;10.48;6.65;;;;;;;;;;4941944;28;20058;-86
2022/10/05 10:20:25;;;;;;;8.60;5.47;;;;;;;;;;4946452;28;20063;-86
2022/10/05 10:23:36;;;;;;;9.40;5.30;;;;;;;;;;4946557;28;20122;-86
2022/10/05 10:26:47;;;;;;;10.90;5.63;;;;;;;;;;4945785;28;20143;-86
2022/10/05 10:29:29;;;;;;;9.30;4.35;;;;;;;;;;4947109;28;20162;-86
2022/10/05 10:32:27;;;;;;;10.00;4.75;;;;;;;;;;4927319;29;20063;-87
2022/10/05 10:35:24;;;;;;;8.50;4.30;;;;;;;;;;4946786;28;20430;-86
2022/10/05 10:37:51;;;;;;;7.95;4.45;;;;;;;;;;4944907;28;20066;-86
2022/10/05 10:40:48;;;;;;;8.50;5.03;;;;;;;;;;4945406;28;20693;-86
2022/10/05 10:43:28;;;;;;;7.60;4.32;;;;;;;;;;4946851;28;20145;-86
2022/10/05 10:46:08;;;;;;;8.85;4.57;;;;;;;;;;5027773;28;20057;-86
2022/10/05 10:48:53;;;;;;;10.43;4.60;;;;;;;;;;5044566;28;20107;-87
2022/10/05 10:51:46;;;;;;;9.40;4.75;;;;;;;;;;5041264;28;20041;-87
2022/10/05 10:54:25;;;;;;;9.27;4.30;;;;;;;;;;5027608;28;20119;-87
2022/10/05 10:57:04;;;;;;;9.45;4.80;;;;;;;;;;5044146;28;20048;-86
2022/10/05 10:59:31;;;;;;;13.18;6.65;;;;;;;;;;5047439;28;20040;-86
2022/10/05 11:02:29;;;;;;;7.03;5.13;;;;;;;;;;5047774;28;20459;-87
2022/10/05 11:05:22;;;;;;;6.43;4.65;;;;;;;;;;5015324;28;20132;-86
2022/10/05 11:08:14;;;;;;;8.60;5.45;;;;;;;;;;5048246;28;20404;-86
2022/10/05 11:11:45;;;;;;;9.20;5.20;;;;;;;;;;5036661;28;20695;-86
2022/10/05 11:14:33;;;;;;;9.05;5.32;;;;;;;;;;5047147;28;20456;-86
2022/10/05 11:17:43;;;;;;;7.30;5.22;;;;;;;;;;5047761;28;20127;-86
2022/10/05 11:20:30;;;;;;;10.65;5.57;;;;;;;;;;5048047;28;20069;-86
2022/10/05 11:23:44;;;;;;;11.68;5.22;;;;;;;;;;5029710;28;20048;-86
2022/10/05 11:26:47;;;;;;;9.45;4.95;;;;;;;;;;5049025;28;20119;-86
2022/10/05 11:29:45;;;;;;;8.73;4.85;;;;;;;;;;5045128;28;20125;-86
2022/10/05 11:33:01;;;;;;;7.85;4.43;;;;;;;;;;5048135;28;20080;-86
2022/10/05 11:36:02;;;;;;;7.13;5.10;;;;;;;;;;4997484;28;20051;-86
2022/10/05 11:38:58;;;;;;;9.07;4.38;;;;;;;;;;4979694;28;20061;-86
2022/10/05 11:41:35;;;;;;;10.23;4.55;;;;;;;;;;4996306;28;20073;-86
2022/10/05 11:44:46;;;;;;;10.80;5.95;;;;;;;;;;4981809;28;20046;-86
2022/10/05 11:47:20;;;;;;;6.68;4.05;;;;;;;;;;4992740;28;20053;-86
2022/10/05 11:49:56;;;;;;;8.73;4.68;;;;;;;;;;4993446;28;20100;-87
2022/10/05 11:52:29;;;;;;;12.27;4.57;;;;;;;;;;4995885;28;20054;-86
2022/10/05 11:55:33;;;;;;;10.38;4.82;;;;;;;;;;4997165;28;20526;-86
2022/10/05 11:58:12;;;;;;;6.82;3.75;;;;;;;;;;4997035;28;20089;-86
2022/10/05 12:00:45;;;;;;;10.15;4.15;;;;;;;;;;5037116;28;20080;-87
2022/10/05 12:03:39;;;;;;;7.65;4.28;;;;;;;;;;5046836;28;20041;-86
2022/10/05 12:06:10;;;;;;;8.00;4.20;;;;;;;;;;5030514;28;20543;-86
2022/10/05 12:09:03;;;;;;;5.97;4.40;;;;;;;;;;5048853;28;20029;-87
2022/10/05 12:11:46;;;;;;;9.20;4.13;;;;;;;;;;5047539;28;20680;-86
2022/10/05 12:14:32;;;;;;;6.65;3.97;;;;;;;;;;5044122;28;20041;-87
2022/10/05 12:17:45;;;;;;;6.15;3.67;;;;;;;;;;5045241;28;20044;-86
2022/10/05 12:20:45;;;;;;;6.13;3.92;;;;;;;;;;5028817;28;20045;-86
2022/10/05 12:23:33;;;;;;;6.38;3.85;;;;;;;;;;5044945;28;20061;-86
2022/10/05 12:26:04;;;;;;;5.32;3.42;;;;;;;;;;5047769;28;20048;-86
2022/10/05 12:29:16;;;;;;;6.38;3.55;;;;;;;;;;5046910;28;20037;-86
2022/10/05 12:31:49;;;;;;;7.65;3.80;;;;;;;;;;5046067;28;20048;-86
2022/10/05 12:34:21;;;;;;;5.45;3.15;;;;;;;;;;5053881;28;20126;-86
2022/10/05 12:36:57;;;;;;;6.78;3.03;;;;;;;;;;5044995;28;20033;-87
2022/10/05 12:39:34;;;;;;;7.63;3.25;;;;;;;;;;5047664;28;20037;-87
2022/10/05 12:42:34;;;;;;;6.70;3.17;;;;;;;;;;5046287;28;20090;-86
2022/10/05 12:45:10;;;;;;;5.18;3.15;;;;;;;;;;5042082;28;20041;-86
2022/10/05 12:47:59;;;;;;;8.32;3.28;;;;;;;;;;5041906;28;20075;-87
2022/10/05 12:50:35;;;;;;;5.47;3.20;;;;;;;;;;5014560;28;20041;-86
2022/10/05 12:53:13;;;;;;;7.22;2.92;;;;;;;;;;5044723;28;20485;-86
2022/10/05 12:55:58;;;;;;;4.05;2.78;;;;;;;;;;5046107;28;20613;-86
2022/10/05 12:58:55;;;;;;;7.22;3.10;;;;;;;;;;5043863;28;20041;-85
2022/10/05 13:01:51;;;;;;;4.50;2.80;;;;;;;;;;5045530;28;20439;-85
2022/10/05 13:04:55;;;;;;;6.50;3.20;;;;;;;;;;5041917;28;20453;-85
2022/10/05 13:07:39;;;;;;;6.25;3.00;;;;;;;;;;5045542;28;20053;-85
2022/10/05 13:10:10;;;;;;;6.45;3.17;;;;;;;;;;5045750;28;20064;-85
2022/10/05 13:13:14;;;;;;;5.28;3.22;;;;;;;;;;5044940;28;20055;-85
2022/10/05 13:16:03;;;;;;;4.68;3.10;;;;;;;;;;5047974;28;20037;-87
2022/10/05 13:18:51;;;;;;;8.77;3.88;;;;;;;;;;5045107;28;20040;-86
2022/10/05 13:21:27;;;;;;;6.63;3.63;;;;;;;;;;5043248;28;20399;-85
2022/10/05 13:24:06;;;;;;;4.97;2.88;;;;;;;;;;5043469;28;20032;-86
2022/10/05 13:26:45;;;;;;;5.28;2.95;;;;;;;;;;5041923;28;20052;-86
2022/10/05 13:29:31;;;;;;;7.78;3.55;;;;;;;;;;5045302;28;20037;-86
2022/10/05 13:32:23;;;;;;;6.25;3.10;;;;;;;;;;5044714;28;20057;-86
2022/10/05 13:35:20;;;;;;;5.57;3.10;;;;;;;;;;5043996;28;20148;-86
2022/10/05 13:38:35;;;;;;;5.78;3.40;;;;;;;;;;5046860;28;20048;-86
2022/10/05 13:41:26;;;;;;;8.68;3.55;;;;;;;;;;5044214;28;20043;-86
2022/10/05 13:44:14;;;;;;;5.38;3.00;;;;;;;;;;5044062;28;20500;-86
2022/10/05 13:47:04;;;;;;;4.65;3.33;;;;;;;;;;5043661;28;20041;-86
2022/10/05 13:49:58;;;;;;;5.18;3.10;;;;;;;;;;5040871;28;20136;-87
2022/10/05 13:53:14;;;;;;;5.05;2.92;;;;;;;;;;5043376;28;20459;-86
2022/10/05 13:55:59;;;;;;;5.93;3.13;;;;;;;;;;5015119;28;20049;-86
2022/10/05 13:58:54;;;;;;;4.82;3.00;;;;;;;;;;5041328;28;20048;-86
2022/10/05 14:01:40;;;;;;;5.45;2.85;;;;;;;;;;5038966;28;20037;-86
2022/10/05 14:04:17;;;;;;;5.47;3.42;;;;;;;;;;5046724;28;20061;-86
2022/10/05 14:06:44;;;;;;;5.10;3.15;;;;;;;;;;5046393;28;20041;-86
2022/10/05 14:09:33;;;;;;;5.50;3.17;;;;;;;;;;5044913;28;20169;-86
2022/10/05 14:12:02;;;;;;;5.75;3.15;;;;;;;;;;5045064;28;20045;-86
2022/10/05 14:14:44;;;;;;;7.13;2.95;;;;;;;;;;5046201;28;20031;-86
2022/10/05 14:17:27;;;;;;;6.28;3.30;;;;;;;;;;5043966;28;20045;-85
2022/10/05 14:20:02;;;;;;;6.70;3.20;;;;;;;;;;5043332;28;20106;-85
2022/10/05 14:22:58;;;;;;;7.20;3.30;;;;;;;;;;5046222;28;20093;-85
2022/10/05 14:25:27;;;;;;;9.80;3.13;;;;;;;;;;5045071;28;20048;-86
2022/10/05 14:28:28;;;;;;;6.00;2.88;;;;;;;;;;5044224;28;20557;-86
2022/10/05 14:31:02;;;;;;;6.57;3.08;;;;;;;;;;5041923;28;20041;-86
2022/10/05 14:33:35;;;;;;;5.40;3.03;;;;;;;;;;5040236;28;20037;-86
2022/10/05 14:36:35;;;;;;;5.65;2.90;;;;;;;;;;5046692;28;20405;-86
2022/10/05 14:39:12;;;;;;;6.03;2.97;;;;;;;;;;5047542;28;20128;-86
2022/10/05 14:41:48;;;;;;;5.00;3.28;;;;;;;;;;5046220;28;20481;-86
2022/10/05 14:44:40;;;;;;;6.85;2.60;;;;;;;;;;5048045;28;20033;-85
2022/10/05 14:47:21;;;;;;;8.30;2.88;;;;;;;;;;5048073;28;20053;-86
2022/10/05 14:50:14;;;;;;;9.40;3.42;;;;;;;;;;5049323;28;20071;-86
2022/10/05 14:52:59;;;;;;;5.35;2.63;;;;;;;;;;5046999;28;20037;-86
2022/10/05 14:55:55;;;;;;;7.30;2.90;;;;;;;;;;5026226;28;20045;-85
2022/10/05 14:59:13;;;;;;;5.07;2.92;;;;;;;;;;5049001;28;20044;-87
2022/10/05 15:02:34;;;;;;;6.57;2.90;;;;;;;;;;5030647;28;20052;-86
2022/10/05 15:05:15;;;;;;;6.38;3.08;;;;;;;;;;4972537;28;20054;-86
2022/10/05 15:07:48;;;;;;;5.40;2.58;;;;;;;;;;4984856;28;20073;-86
2022/10/05 15:10:34;;;;;;;5.93;2.75;;;;;;;;;;4988209;28;20074;-86
2022/10/05 15:13:24;;;;;;;5.63;2.45;;;;;;;;;;4989319;28;20100;-86
2022/10/05 15:15:58;;;;;;;5.15;2.50;;;;;;;;;;4989608;28;20108;-86
2022/10/05 15:18:56;;;;;;;5.25;2.60;;;;;;;;;;4988786;28;20100;-85
2022/10/05 15:21:45;;;;;;;5.60;2.45;;;;;;;;;;4986569;28;20525;-86
2022/10/05 15:24:41;;;;;;;6.93;3.20;;;;;;;;;;4967336;28;20113;-86
2022/10/05 15:27:55;;;;;;;6.60;2.75;;;;;;;;;;4986548;28;20087;-87
2022/10/05 15:30:23;;;;;;;4.22;2.38;;;;;;;;;;5024008;28;20076;-86
2022/10/05 15:33:08;;;;;;;7.05;2.67;;;;;;;;;;5048374;28;20124;-86
2022/10/05 15:35:41;;;;;;;6.93;2.80;;;;;;;;;;5049828;28;20045;-86
2022/10/05 15:38:23;;;;;;;7.45;2.60;;;;;;;;;;5047901;28;20040;-86
2022/10/05 15:41:05;;;;;;;5.57;2.58;;;;;;;;;;5049440;28;20052;-86
2022/10/05 15:43:49;;;;;;;5.00;2.60;;;;;;;;;;5049482;28;20467;-87
2022/10/05 15:46:55;;;;;;;7.28;2.75;;;;;;;;;;5048251;28;20400;-86
2022/10/05 15:49:26;;;;;;;7.93;2.60;;;;;;;;;;5050729;28;20616;-85
2022/10/05 15:52:28;;;;;;;5.32;2.95;;;;;;;;;;5016831;28;20623;-86
2022/10/05 15:55:18;;;;;;;5.68;2.55;;;;;;;;;;5045409;28;20099;-85
2022/10/05 15:58:45;;;;;;;6.50;2.90;;;;;;;;;;5049493;28;20362;-85
2022/10/05 16:01:20;;;;;;;5.10;2.55;;;;;;;;;;4985660;28;20066;-85
2022/10/05 16:03:53;;;;;;;9.38;2.58;;;;;;;;;;4986555;28;20355;-85
2022/10/05 16:09:52;;;;;;;3.88;2.53;;;;;;;;;;4987989;28;20057;-85
2022/10/05 16:12:28;;;;;;;6.43;2.40;;;;;;;;;;4983000;28;20065;-85
2022/10/05 16:15:07;;;;;;;6.43;2.70;;;;;;;;;;4987513;28;20050;-85
2022/10/05 16:18:11;;;;;;;4.65;2.42;;;;;;;;;;4986581;28;20144;-86
2022/10/05 16:20:49;;;;;;;9.57;3.40;;;;;;;;;;4981819;28;20103;-85
2022/10/05 16:24:08;;;;;;;12.38;2.83;;;;;;;;;;4989572;28;20050;-86
2022/10/05 16:26:56;;;;;;;4.05;2.67;;;;;;;;;;4971827;28;20073;-86
2022/10/05 16:29:36;;;;;;;7.68;2.90;;;;;;;;;;4987855;28;20054;-86
2022/10/05 16:32:17;;;;;;;4.50;2.63;;;;;;;;;;4986618;28;20808;-86
2022/10/05 16:35:15;;;;;;;6.85;2.78;;;;;;;;;;4987470;28;20042;-86
2022/10/05 16:37:55;;;;;;;4.32;2.67;;;;;;;;;;5038390;28;20172;-86
2022/10/05 16:40:35;;;;;;;4.30;2.50;;;;;;;;;;5051126;28;20041;-86
2022/10/05 16:43:12;;;;;;;5.15;2.70;;;;;;;;;;5046627;28;20087;-86
2022/10/05 16:46:01;;;;;;;3.95;2.42;;;;;;;;;;5047669;28;20128;-86
2022/10/05 16:48:48;;;;;;;5.20;2.80;;;;;;;;;;5042254;28;20033;-86
2022/10/05 16:51:15;;;;;;;4.82;2.50;;;;;;;;;;5029332;28;20086;-86
2022/10/05 16:54:00;;;;;;;6.82;3.30;;;;;;;;;;5047094;28;20037;-86
2022/10/05 16:57:02;;;;;;;11.10;4.45;;;;;;;;;;5046994;28;20028;-86
2022/10/05 17:00:00;;;;;;;8.93;4.13;;;;;;;;;;5049262;28;20048;-86
2022/10/05 17:02:35;;;;;;;12.30;4.63;;;;;;;;;;5034802;28;20064;-86
2022/10/05 17:05:35;;;;;;;7.13;4.80;;;;;;;;;;5045027;28;20032;-86
2022/10/05 17:08:16;;;;;;;8.75;4.13;;;;;;;;;;5044360;28;20061;-86